Terminal Aerodrome Forecast
Issued by NWS Goodland, KS

Home | Current Version | Previous Version | Text Only | Print | Product List | Glossary On
Versions: 1 2 3 4 5 6 7 8 9 10 11 12 13 14 15 16 17 18
000
FTUS43 KGLD 071120
TAFGLD
TAF
KGLD 071120Z 0712/0812 07012KT 6SM -SN OVC030
      TEMPO 0712/0714 05012G18KT 3SM -SN SCT007 BKN015
     FM071500 04012KT P6SM -SN BKN015
     FM071900 36008KT P6SM BKN035
     FM080200 31010KT P6SM SCT050=

USA.gov is the U.S. government's official web portal to all federal, state and local government web resources and services.